Time;durP1;ratioP1;P1;durP2;ratioP2;P2;SDS_P1;SDS_P2;PMS_P1;PMS_P2;Temp;Humidity;BMP_temperature;BMP_pressure;BME280_temperature;BME280_humidity;BME280_pressure;Samples;Min_cycle;Max_cycle;Signal;HPM_P1;HPM_P2
2022/07/04 00:00:31;;;;;;;3.60;1.20;;;14.80;99.90;;;;;;6228442;22;20090;-89
2022/07/04 00:03:01;;;;;;;1.80;1.00;;;14.80;99.90;;;;;;6217694;22;20024;-89
2022/07/04 00:05:30;;;;;;;2.72;1.20;;;14.90;99.90;;;;;;6242530;22;20375;-88
2022/07/04 00:08:00;;;;;;;1.77;0.95;;;14.90;99.90;;;;;;6242779;22;20022;-89
2022/07/04 00:10:29;;;;;;;2.47;1.02;;;14.90;99.90;;;;;;6261611;22;20019;-90
2022/07/04 00:13:16;;;;;;;4.45;1.15;;;14.80;99.90;;;;;;6266259;22;20016;-92
2022/07/04 00:15:42;;;;;;;2.67;1.20;;;14.80;99.90;;;;;;6261141;22;20449;-93
2022/07/04 00:18:11;;;;;;;2.22;1.02;;;14.80;99.90;;;;;;6236282;22;20054;-92
2022/07/04 00:20:45;;;;;;;2.45;1.10;;;14.80;99.90;;;;;;6266050;22;20098;-93
2022/07/04 00:23:11;;;;;;;2.55;1.10;;;14.70;99.90;;;;;;6241977;22;20016;-92
2022/07/04 00:25:50;;;;;;;3.13;1.13;;;14.70;99.90;;;;;;6237325;23;20016;-92
2022/07/04 00:28:21;;;;;;;2.47;1.20;;;14.70;99.90;;;;;;6262350;23;20034;-93
2022/07/04 00:30:50;;;;;;;2.78;1.13;;;14.60;99.90;;;;;;6237105;23;20016;-93
2022/07/04 00:33:19;;;;;;;2.15;1.00;;;14.60;99.90;;;;;;6206285;23;20024;-96
2022/07/04 00:35:45;;;;;;;2.70;1.17;;;14.60;99.90;;;;;;6230109;23;20023;-90
2022/07/04 00:38:10;;;;;;;4.13;1.17;;;14.50;99.90;;;;;;6241280;23;20072;-91
2022/07/04 00:40:37;;;;;;;3.77;1.30;;;14.50;99.90;;;;;;6230104;23;20247;-95
2022/07/04 00:43:04;;;;;;;3.42;1.33;;;14.50;99.90;;;;;;6201244;23;20031;-95
2022/07/04 00:45:30;;;;;;;1.98;0.82;;;14.50;99.90;;;;;;6197621;23;20020;-96
2022/07/04 00:47:56;;;;;;;2.65;1.40;;;14.50;99.90;;;;;;6197532;23;20016;-95
2022/07/04 00:50:25;;;;;;;3.60;1.20;;;14.50;99.90;;;;;;6197116;23;20016;-95
2022/07/04 00:52:53;;;;;;;2.88;1.10;;;14.50;99.90;;;;;;6223405;23;20047;-95
2022/07/04 00:55:19;;;;;;;3.75;1.17;;;14.50;99.90;;;;;;6202979;23;20012;-93
2022/07/04 00:57:46;;;;;;;;;;;14.40;99.90;;;;;;6206187;23;20016;-93
2022/07/04 02:35:42;;;;;;;2.88;1.25;;;13.50;99.90;;;;;;6288649;22;20043;-88
2022/07/04 02:38:17;;;;;;;2.80;1.23;;;13.50;99.90;;;;;;6193274;23;20104;-88
2022/07/04 02:41:05;;;;;;;2.83;1.05;;;13.50;99.90;;;;;;6236504;23;20017;-88
2022/07/04 02:43:57;;;;;;;5.95;1.50;;;13.40;99.90;;;;;;6211743;23;20016;-87
2022/07/04 02:46:45;;;;;;;3.05;1.30;;;13.40;99.90;;;;;;6195288;23;20020;-88
2022/07/04 02:49:49;;;;;;;3.28;1.00;;;13.40;99.90;;;;;;6172898;23;20059;-88
2022/07/04 02:57:41;;;;;;;;;;;;;;;;;;;;;
2022/07/04 03:00:16;;;;;;;;;;;;;;;;;;;;;
2022/07/04 03:29:10;;;;;;;3.00;1.40;;;13.30;99.90;;;;;;6267261;22;20053;-94
2022/07/04 03:31:36;;;;;;;3.90;1.80;;;13.30;99.90;;;;;;6235278;22;20051;-93
2022/07/04 03:34:02;;;;;;;3.55;1.67;;;13.30;99.90;;;;;;6232336;22;20285;-94
2022/07/04 03:36:28;;;;;;;3.78;1.65;;;13.30;99.90;;;;;;6231057;22;20012;-91
2022/07/04 03:38:53;;;;;;;3.88;2.03;;;13.40;99.90;;;;;;6228136;22;20050;-92
2022/07/04 03:41:19;;;;;;;5.60;2.57;;;13.40;99.90;;;;;;6227380;22;20020;-93
2022/07/04 03:43:45;;;;;;;3.93;1.87;;;13.50;99.90;;;;;;6227931;22;20255;-93
2022/07/04 03:46:10;;;;;;;5.85;2.05;;;13.50;99.90;;;;;;6227919;22;20019;-92
2022/07/04 03:48:36;;;;;;;5.10;3.03;;;13.60;99.90;;;;;;6226678;22;20020;-94
2022/07/04 03:51:02;;;;;;;6.43;2.92;;;13.70;99.90;;;;;;6226743;22;20015;-93
2022/07/04 03:53:28;;;;;;;4.87;2.37;;;13.70;99.90;;;;;;6226654;22;20376;-90
2022/07/04 03:55:53;;;;;;;4.67;2.53;;;13.70;99.90;;;;;;6226679;22;20022;-94
2022/07/04 03:58:19;;;;;;;5.23;2.40;;;13.80;99.90;;;;;;6226866;22;20261;-92
2022/07/04 04:00:45;;;;;;;5.13;2.77;;;13.80;99.90;;;;;;6226829;22;20242;-91
2022/07/04 04:06:35;;;;;;;6.20;2.78;;;13.90;99.90;;;;;;6264922;22;20027;-88
2022/07/04 04:09:25;;;;;;;4.60;2.10;;;13.90;99.90;;;;;;6233715;22;20015;-89
2022/07/04 04:12:02;;;;;;;6.05;2.33;;;14.00;99.90;;;;;;6226250;22;20012;-91
2022/07/04 04:14:44;;;;;;;;;;;14.00;99.90;;;;;;6227025;22;20051;-91
2022/07/04 05:46:08;;;;;;;2.47;1.20;;;16.40;99.90;;;;;;6275464;22;20023;-88
2022/07/04 05:48:34;;;;;;;;;;;16.30;99.90;;;;;;6250113;22;20428;-88
2022/07/04 05:51:00;;;;;;;2.63;1.20;;;16.20;99.90;;;;;;6275346;22;19915;-91
2022/07/04 05:53:26;;;;;;;4.30;1.15;;;16.30;99.90;;;;;;6250269;22;20035;-89
2022/07/04 05:55:51;;;;;;;3.88;1.55;;;16.30;99.90;;;;;;6249802;22;20016;-88
2022/07/04 05:58:17;;;;;;;3.38;1.35;;;16.30;99.90;;;;;;6249769;22;20051;-92
2022/07/04 06:00:43;;;;;;;3.85;1.45;;;16.40;99.90;;;;;;6249997;22;20015;-89
2022/07/04 06:03:09;;;;;;;2.85;1.25;;;16.40;99.90;;;;;;6224689;22;20019;-88
2022/07/04 06:05:45;;;;;;;3.50;1.20;;;16.40;99.90;;;;;;6249780;22;20027;-89
2022/07/04 06:08:10;;;;;;;2.50;0.93;;;16.30;99.90;;;;;;6224772;22;20015;-88
2022/07/04 06:10:36;;;;;;;2.92;1.10;;;16.30;99.90;;;;;;6249885;22;20031;-90
2022/07/04 06:13:02;;;;;;;3.15;1.20;;;16.30;99.90;;;;;;6250005;22;20042;-87
2022/07/04 06:15:28;;;;;;;2.70;1.23;;;16.30;99.90;;;;;;6224421;22;20015;-87
2022/07/04 06:17:57;;;;;;;3.42;1.10;;;16.20;99.90;;;;;;6224584;22;20035;-90
2022/07/04 06:20:22;;;;;;;2.67;1.23;;;16.20;99.90;;;;;;6224919;22;20016;-88
2022/07/04 06:26:24;;;;;;;3.67;1.20;;;16.40;99.90;;;;;;6221426;22;20020;-93
2022/07/04 06:28:50;;;;;;;3.08;1.38;;;16.50;99.90;;;;;;6224965;22;20051;-92
2022/07/04 06:31:16;;;;;;;2.67;1.25;;;16.70;99.90;;;;;;6224750;22;20352;-91
2022/07/04 06:36:41;;;;;;;2.95;1.33;;;17.00;99.90;;;;;;6200122;22;20099;-91
2022/07/04 06:39:24;;;;;;;;;;;;;;;;;;;;;
2022/07/04 06:41:56;;;;;;;3.20;1.20;;;17.20;99.90;;;;;;6249373;22;20388;-91
2022/07/04 06:44:22;;;;;;;2.78;1.05;;;17.40;99.90;;;;;;6249676;22;20055;-91
2022/07/04 06:46:48;;;;;;;2.80;1.15;;;17.70;99.90;;;;;;6224296;22;20016;-93
2022/07/04 06:49:17;;;;;;;3.80;1.23;;;17.90;99.90;;;;;;6224551;22;20077;-91
2022/07/04 06:51:52;;;;;;;4.25;1.50;;;18.00;99.90;;;;;;6249718;22;20012;-90
2022/07/04 06:54:18;;;;;;;3.85;1.38;;;18.30;99.90;;;;;;6224429;22;20059;-91
2022/07/04 06:56:44;;;;;;;5.45;1.63;;;18.50;99.90;;;;;;6224104;22;20082;-91
2022/07/04 07:02:46;;;;;;;2.25;0.93;;;18.50;99.90;;;;;;6148478;22;20015;-92
2022/07/04 07:05:17;;;;;;;1.88;0.90;;;18.50;99.90;;;;;;6169107;23;20035;-91
2022/07/04 07:07:43;;;;;;;2.03;1.00;;;18.60;99.90;;;;;;6167852;23;20348;-91
2022/07/04 07:10:12;;;;;;;5.30;1.23;;;18.70;99.90;;;;;;6169030;23;20019;-92
2022/07/04 07:12:37;;;;;;;3.10;1.08;;;18.80;99.90;;;;;;6169012;23;20018;-90
2022/07/04 07:15:03;;;;;;;2.42;0.80;;;19.00;99.90;;;;;;6169006;23;20052;-94
2022/07/04 07:17:29;;;;;;;1.88;0.80;;;19.10;99.90;;;;;;6168735;23;20023;-91
2022/07/04 07:19:55;;;;;;;2.90;0.88;;;19.30;99.90;;;;;;6168971;23;20026;-91
2022/07/04 07:22:21;;;;;;;1.98;0.80;;;19.60;99.90;;;;;;6169139;23;20113;-89
2022/07/04 07:24:47;;;;;;;3.78;0.85;;;20.10;99.90;;;;;;6168449;23;20022;-90
2022/07/04 07:27:12;;;;;;;3.00;1.20;;;20.70;99.90;;;;;;6168661;23;20057;-92
2022/07/04 07:29:39;;;;;;;2.28;1.00;;;20.90;99.90;;;;;;6168768;23;20058;-91
2022/07/04 07:32:05;;;;;;;;;;;20.70;99.90;;;;;;6169213;23;20019;-96
2022/07/04 07:34:31;;;;;;;2.33;1.10;;;20.50;99.90;;;;;;6222249;23;19917;-90
2022/07/04 07:36:57;;;;;;;;;;;20.30;99.90;;;;;;6197450;23;20093;-88
2022/07/04 07:39:22;;;;;;;3.25;1.00;;;20.10;99.90;;;;;;6220118;23;19968;-88
2022/07/04 07:41:48;;;;;;;1.88;0.80;;;19.80;99.90;;;;;;6168666;23;20065;-88
2022/07/04 07:44:14;;;;;;;1.83;0.80;;;19.60;99.90;;;;;;6169209;23;20023;-88
2022/07/04 07:46:43;;;;;;;2.13;0.75;;;19.40;99.90;;;;;;6094615;23;20387;-91
2022/07/04 07:49:09;;;;;;;4.35;1.02;;;19.30;99.90;;;;;;6168437;23;20022;-88
2022/07/04 07:51:35;;;;;;;2.95;0.90;;;19.20;99.90;;;;;;6092375;23;20077;-88
2022/07/04 07:54:01;;;;;;;2.05;0.77;;;19.10;99.90;;;;;;6194556;23;20042;-88
2022/07/04 07:56:27;;;;;;;1.60;0.80;;;19.00;99.90;;;;;;6195059;23;20072;-87
2022/07/04 07:58:53;;;;;;;1.85;0.70;;;18.90;99.90;;;;;;6093563;23;20014;-87
2022/07/04 08:01:20;;;;;;;2.33;0.80;;;18.80;99.90;;;;;;6194794;23;20117;-88
2022/07/04 08:06:47;;;;;;;1.63;0.70;;;18.70;99.90;;;;;;6130015;23;20423;-89
2022/07/04 08:09:14;;;;;;;1.75;0.80;;;18.50;99.90;;;;;;6150832;23;20062;-90
2022/07/04 08:11:41;;;;;;;3.72;1.00;;;18.40;99.90;;;;;;6194676;23;20022;-90
2022/07/04 08:14:07;;;;;;;3.63;1.30;;;18.30;99.90;;;;;;6194777;23;20026;-89
2022/07/04 08:16:33;;;;;;;2.75;1.30;;;18.20;99.90;;;;;;6169505;23;20330;-89
2022/07/04 08:18:59;;;;;;;3.47;1.48;;;18.00;99.90;;;;;;6169562;23;20471;-89
2022/07/04 08:21:25;;;;;;;3.63;1.60;;;17.90;99.90;;;;;;6194597;23;20019;-90
2022/07/04 08:23:51;;;;;;;2.83;1.27;;;17.80;99.90;;;;;;6169727;23;20030;-89
2022/07/04 08:26:16;;;;;;;3.13;1.33;;;17.70;99.90;;;;;;6169717;23;20019;-89
2022/07/04 08:28:42;;;;;;;3.05;1.50;;;17.70;99.90;;;;;;6169070;23;20093;-89
2022/07/04 08:31:08;;;;;;;3.03;1.20;;;17.60;99.90;;;;;;6194884;23;20085;-89
2022/07/04 08:33:34;;;;;;;2.75;0.98;;;17.60;99.90;;;;;;6169485;23;20018;-89
2022/07/04 08:35:59;;;;;;;2.35;1.10;;;17.60;99.90;;;;;;6169585;23;20021;-88
2022/07/04 08:38:25;;;;;;;3.67;1.15;;;17.60;99.90;;;;;;6093494;23;20018;-89
2022/07/04 08:40:57;;;;;;;3.08;0.93;;;17.60;99.90;;;;;;6169507;23;20474;-89
2022/07/04 08:43:24;;;;;;;3.05;1.00;;;17.60;99.90;;;;;;6194787;23;20031;-88
2022/07/04 08:45:56;;;;;;;2.08;0.90;;;17.70;99.90;;;;;;6067671;23;20018;-88
2022/07/04 08:48:25;;;;;;;2.00;0.90;;;17.70;99.90;;;;;;6194105;23;20032;-88
2022/07/04 08:51:15;;;;;;;2.50;0.80;;;17.80;99.90;;;;;;6194172;23;20018;-87
2022/07/04 08:53:50;;;;;;;2.35;0.93;;;17.80;99.90;;;;;;6218894;23;20024;-88
2022/07/04 08:59:02;;;;;;;1.90;0.80;;;18.00;99.90;;;;;;6093517;23;20026;-88
2022/07/04 09:01:28;;;;;;;2.28;1.00;;;18.10;99.90;;;;;;6194151;23;20444;-87
2022/07/04 09:03:55;;;;;;;2.50;1.00;;;18.20;99.90;;;;;;6067689;23;20049;-87
2022/07/04 09:06:21;;;;;;;1.98;0.88;;;18.30;99.90;;;;;;6194259;23;20097;-86
2022/07/04 09:08:47;;;;;;;1.50;0.80;;;18.40;99.90;;;;;;6194466;23;20321;-88
2022/07/04 09:11:12;;;;;;;1.52;0.65;;;18.50;99.90;;;;;;6169721;23;20077;-87
2022/07/04 09:13:38;;;;;;;1.77;0.60;;;18.50;99.90;;;;;;6194453;23;20031;-90
2022/07/04 09:16:04;;;;;;;1.70;0.57;;;18.60;99.90;;;;;;6168981;23;20023;-92
2022/07/04 09:18:36;;;;;;;2.97;1.50;;;18.60;99.90;;;;;;6194394;23;20018;-88
2022/07/04 09:21:05;;;;;;;2.70;1.60;;;18.60;99.90;;;;;;6169496;23;20455;-89
2022/07/04 09:23:38;;;;;;;0.82;0.35;;;18.60;99.90;;;;;;6194292;23;20153;-90
2022/07/04 09:26:06;;;;;;;1.17;0.57;;;18.60;99.90;;;;;;6194470;23;20388;-90
2022/07/04 09:28:32;;;;;;;1.77;0.60;;;18.60;99.90;;;;;;6093546;23;20058;-89
2022/07/04 09:31:00;;;;;;;1.13;0.60;;;18.70;99.90;;;;;;6194194;23;20022;-87
2022/07/04 09:33:55;;;;;;;1.30;0.93;;;18.70;99.90;;;;;;6169126;23;20019;-87
2022/07/04 09:36:23;;;;;;;0.88;0.43;;;18.70;99.90;;;;;;6194180;23;20018;-89
2022/07/04 09:39:05;;;;;;;1.85;0.57;;;18.80;99.90;;;;;;6194342;23;20018;-89
2022/07/04 09:41:48;;;;;;;0.85;0.50;;;18.80;99.90;;;;;;6194069;23;20019;-88
2022/07/04 09:44:14;;;;;;;1.25;0.40;;;18.90;99.90;;;;;;6093457;23;20092;-90
2022/07/04 09:46:40;;;;;;;0.95;0.60;;;18.90;99.90;;;;;;6168984;23;20443;-87
2022/07/04 09:49:05;;;;;;;1.17;0.50;;;18.90;99.90;;;;;;6194192;23;20033;-87
2022/07/04 09:51:41;;;;;;;1.27;0.43;;;18.90;99.90;;;;;;6194628;23;20015;-89
2022/07/04 09:54:28;;;;;;;1.13;0.50;;;18.90;99.90;;;;;;6067618;23;20018;-87
2022/07/04 09:56:56;;;;;;;2.30;0.60;;;18.90;99.90;;;;;;6067671;23;20511;-91
2022/07/04 09:59:24;;;;;;;0.90;0.43;;;19.00;99.90;;;;;;6194008;23;20027;-90
2022/07/04 10:01:50;;;;;;;1.38;0.70;;;19.00;99.90;;;;;;6214131;23;20096;-89
2022/07/04 10:04:16;;;;;;;2.75;0.57;;;19.10;99.90;;;;;;6214141;23;20016;-86
2022/07/04 10:06:43;;;;;;;0.98;0.47;;;19.10;99.90;;;;;;6212124;23;20043;-87
2022/07/04 10:09:17;;;;;;;2.78;0.50;;;19.20;99.90;;;;;;6197342;23;20025;-87
2022/07/04 10:11:44;;;;;;;1.00;0.40;;;19.30;99.90;;;;;;6091882;23;20048;-86
2022/07/04 10:14:11;;;;;;;2.58;0.45;;;19.30;99.90;;;;;;6193989;23;20065;-86
2022/07/04 10:16:38;;;;;;;0.93;0.40;;;19.30;99.90;;;;;;6192986;23;20015;-88
2022/07/04 10:19:06;;;;;;;1.70;0.40;;;19.30;99.90;;;;;;6092899;23;20023;-89
2022/07/04 10:21:34;;;;;;;2.45;0.60;;;19.30;99.90;;;;;;6193617;23;20394;-89
2022/07/04 10:24:03;;;;;;;2.22;0.52;;;19.20;99.90;;;;;;6093283;23;20019;-86
2022/07/04 10:26:29;;;;;;;1.65;0.50;;;19.00;99.90;;;;;;6193904;23;20018;-89
2022/07/04 10:28:55;;;;;;;;;;;18.90;99.90;;;;;;6194293;23;20022;-91
2022/07/04 10:31:23;;;;;;;1.70;0.80;;;18.90;99.90;;;;;;6092881;23;20254;-88
2022/07/04 10:33:49;;;;;;;0.82;0.50;;;18.90;99.90;;;;;;6193875;23;20026;-85
2022/07/04 10:36:23;;;;;;;3.42;0.73;;;18.90;99.90;;;;;;6193881;23;20065;-86
2022/07/04 10:39:21;;;;;;;2.33;0.57;;;19.00;99.90;;;;;;6193757;23;20018;-86
2022/07/04 10:42:06;;;;;;;1.90;0.52;;;19.20;99.90;;;;;;6173430;23;20025;-86
2022/07/04 10:44:37;;;;;;;0.90;0.52;;;19.30;99.90;;;;;;6192045;23;20101;-89
2022/07/04 10:47:04;;;;;;;0.95;0.40;;;19.30;99.90;;;;;;6192002;23;20026;-86
2022/07/04 10:49:31;;;;;;;1.27;0.55;;;19.30;99.90;;;;;;6092759;23;20479;-86
2022/07/04 10:52:11;;;;;;;1.92;0.60;;;19.30;99.90;;;;;;6193534;23;20019;-86
2022/07/04 10:54:39;;;;;;;1.90;0.52;;;19.40;99.90;;;;;;6193741;23;20018;-87
2022/07/04 10:57:18;;;;;;;1.75;0.73;;;19.50;99.90;;;;;;6168879;23;20022;-86
2022/07/04 10:59:57;;;;;;;1.40;0.70;;;19.50;99.90;;;;;;6168806;23;20053;-87
2022/07/04 11:02:29;;;;;;;1.00;0.40;;;19.40;99.90;;;;;;6193249;23;20019;-87
2022/07/04 11:05:08;;;;;;;1.80;0.75;;;19.30;99.90;;;;;;6193679;23;20027;-88
2022/07/04 11:07:36;;;;;;;1.25;0.50;;;19.30;99.90;;;;;;6193174;23;20026;-87
2022/07/04 11:10:33;;;;;;;2.45;1.48;;;19.50;99.90;;;;;;6193734;23;20022;-89
2022/07/04 11:12:57;;;;;;;1.33;0.50;;;19.70;99.90;;;;;;6193661;23;20023;-86
2022/07/04 11:15:31;;;;;;;1.23;0.50;;;19.90;99.90;;;;;;6193837;23;20085;-86
2022/07/04 11:18:00;;;;;;;1.33;0.70;;;19.90;99.90;;;;;;6194064;23;20018;-87
2022/07/04 11:20:27;;;;;;;0.82;0.52;;;19.90;99.90;;;;;;6193782;23;20034;-87
2022/07/04 11:23:20;;;;;;;0.73;0.40;;;19.90;99.90;;;;;;6092840;23;20041;-89
2022/07/04 11:25:50;;;;;;;0.60;0.40;;;20.00;99.90;;;;;;6169450;23;20018;-88
2022/07/04 11:28:22;;;;;;;1.30;0.40;;;20.10;99.90;;;;;;6167558;23;20022;-87
2022/07/04 11:30:54;;;;;;;1.48;0.50;;;20.20;99.90;;;;;;6169087;23;20019;-90
2022/07/04 11:33:22;;;;;;;1.00;0.40;;;20.10;99.90;;;;;;6168863;23;20052;-88
2022/07/04 11:36:21;;;;;;;4.05;0.90;;;20.20;99.90;;;;;;6169872;23;20395;-87
2022/07/04 11:38:56;;;;;;;1.35;0.40;;;20.30;99.90;;;;;;6138864;23;20089;-87
2022/07/04 11:54:54;;;;;;;3.15;1.50;;;20.50;99.90;;;;;;6096207;23;20075;-90
2022/07/04 11:57:28;;;;;;;1.33;0.80;;;20.70;99.90;;;;;;6190757;23;20087;-93
2022/07/04 12:00:18;;;;;;;1.60;1.00;;;20.80;99.90;;;;;;6166637;23;20027;-92
2022/07/04 12:02:52;;;;;;;3.42;0.95;;;21.00;99.90;;;;;;6193899;23;20021;-90
2022/07/04 12:05:18;;;;;;;1.35;0.65;;;21.10;99.90;;;;;;6167185;23;20119;-94
2022/07/04 12:08:12;;;;;;;2.22;0.50;;;21.10;99.90;;;;;;6192870;23;20023;-91
2022/07/04 12:10:45;;;;;;;1.08;0.40;;;21.10;99.90;;;;;;6163779;23;20406;-90
2022/07/04 12:13:17;;;;;;;0.65;0.22;;;21.20;99.90;;;;;;6165317;23;20021;-90
2022/07/04 12:15:48;;;;;;;0.68;0.20;;;21.30;99.90;;;;;;6165761;23;20012;-90
2022/07/04 12:18:31;;;;;;;0.80;0.40;;;21.40;99.90;;;;;;6190270;23;20092;-90
2022/07/04 12:21:22;;;;;;;2.38;0.45;;;21.40;99.90;;;;;;6167494;23;20051;-89
2022/07/04 12:24:14;;;;;;;1.33;0.40;;;21.50;99.90;;;;;;6190070;23;20021;-91
2022/07/04 12:26:47;;;;;;;0.40;0.30;;;21.50;99.90;;;;;;6165627;23;20014;-88
2022/07/04 12:29:29;;;;;;;1.33;0.30;;;21.60;99.90;;;;;;6165361;23;20039;-89
2022/07/04 12:31:55;;;;;;;0.40;0.30;;;21.70;99.90;;;;;;6165389;23;20345;-88
2022/07/04 12:34:22;;;;;;;1.38;0.40;;;21.80;99.90;;;;;;6189631;23;20024;-90
2022/07/04 12:37:07;;;;;;;0.60;0.30;;;21.80;99.70;;;;;;6165482;23;20017;-91
2022/07/04 12:42:42;;;;;;;0.55;0.30;;;21.90;99.10;;;;;;6200390;23;20029;-88
2022/07/04 12:45:21;;;;;;;0.85;0.30;;;21.90;98.60;;;;;;6164838;23;20017;-90
2022/07/04 12:47:50;;;;;;;0.80;0.47;;;22.00;98.50;;;;;;6190546;23;20404;-90
2022/07/04 12:50:24;;;;;;;1.20;0.40;;;22.00;98.70;;;;;;6189993;23;20083;-86
2022/07/04 12:52:53;;;;;;;1.00;0.40;;;22.10;98.20;;;;;;6190266;23;20009;-88
2022/07/04 12:55:18;;;;;;;0.65;0.40;;;22.10;98.10;;;;;;6164767;23;20091;-87
2022/07/04 12:57:44;;;;;;;0.70;0.20;;;22.00;98.00;;;;;;6189576;23;20055;-89
2022/07/04 13:00:12;;;;;;;0.98;0.40;;;21.90;98.10;;;;;;6165241;23;20020;-90
2022/07/04 13:02:38;;;;;;;0.60;0.30;;;21.90;98.00;;;;;;6190346;23;20446;-89
2022/07/04 13:05:04;;;;;;;0.90;0.30;;;21.80;97.80;;;;;;6164996;23;20016;-88
2022/07/04 13:07:29;;;;;;;0.35;0.30;;;21.80;97.60;;;;;;6165360;23;20038;-87
2022/07/04 13:09:55;;;;;;;2.33;1.00;;;21.80;97.50;;;;;;6189646;23;20493;-88
2022/07/04 13:12:24;;;;;;;0.95;0.40;;;21.80;97.30;;;;;;6165474;23;20469;-89
2022/07/04 13:14:51;;;;;;;0.40;0.30;;;21.90;97.10;;;;;;6164988;23;20048;-87
2022/07/04 13:17:18;;;;;;;2.00;0.38;;;21.90;97.00;;;;;;6164548;23;20023;-87
2022/07/04 13:19:43;;;;;;;0.85;0.45;;;22.00;97.20;;;;;;6164530;23;20020;-89
2022/07/04 13:22:09;;;;;;;1.15;0.40;;;22.10;97.00;;;;;;6164838;23;20066;-88
2022/07/04 13:24:35;;;;;;;1.15;0.45;;;22.10;96.60;;;;;;6189631;23;20024;-88
2022/07/04 13:27:00;;;;;;;0.80;0.30;;;21.90;96.40;;;;;;6189407;23;20394;-89
2022/07/04 13:29:26;;;;;;;0.57;0.40;;;21.80;96.50;;;;;;6164839;23;20016;-87
2022/07/04 13:31:52;;;;;;;0.68;0.30;;;21.70;95.80;;;;;;6189346;23;20391;-86
2022/07/04 13:34:18;;;;;;;0.20;0.20;;;21.60;95.70;;;;;;6164802;23;20016;-88
2022/07/04 13:36:45;;;;;;;0.47;0.30;;;21.50;95.60;;;;;;6164820;23;20023;-91
2022/07/04 13:39:11;;;;;;;0.47;0.20;;;21.60;96.10;;;;;;6164687;23;20092;-87
2022/07/04 13:41:37;;;;;;;0.80;0.30;;;21.70;95.50;;;;;;6216321;23;20342;-89
2022/07/04 13:44:05;;;;;;;0.22;0.20;;;21.70;95.60;;;;;;6189651;23;20044;-89
2022/07/04 13:46:34;;;;;;;0.40;0.30;;;21.80;95.50;;;;;;6189662;23;20021;-87
2022/07/04 13:49:02;;;;;;;1.13;0.30;;;21.90;95.60;;;;;;6164621;23;20016;-89
2022/07/04 13:51:27;;;;;;;0.65;0.20;;;22.00;95.20;;;;;;6189384;23;20035;-87
2022/07/04 13:53:53;;;;;;;0.25;0.20;;;22.10;95.00;;;;;;6189402;23;20455;-88
2022/07/04 13:56:20;;;;;;;0.88;0.20;;;22.10;94.60;;;;;;6215614;23;20458;-87
2022/07/04 13:58:47;;;;;;;0.70;0.30;;;22.00;94.10;;;;;;6189454;23;20063;-87
2022/07/04 14:01:14;;;;;;;0.25;0.20;;;21.90;94.10;;;;;;6189436;23;20016;-88
2022/07/04 14:03:42;;;;;;;0.68;0.30;;;22.00;94.20;;;;;;6189234;23;20445;-89
2022/07/04 14:06:08;;;;;;;0.68;0.15;;;22.00;94.20;;;;;;6164167;23;20021;-89
2022/07/04 14:08:37;;;;;;;0.55;0.20;;;22.00;93.90;;;;;;6188826;23;20027;-88
2022/07/04 14:11:02;;;;;;;1.15;0.20;;;22.00;93.40;;;;;;6164508;23;20123;-91
2022/07/04 14:13:28;;;;;;;1.27;0.30;;;21.90;93.60;;;;;;6187659;23;20043;-89
2022/07/04 14:15:54;;;;;;;0.30;0.20;;;21.90;93.80;;;;;;6164971;23;20013;-86
2022/07/04 14:18:20;;;;;;;0.38;0.25;;;21.90;93.80;;;;;;6164460;23;20149;-88
2022/07/04 14:20:46;;;;;;;0.63;0.10;;;22.00;93.90;;;;;;6189533;23;20056;-88
2022/07/04 14:23:12;;;;;;;0.47;0.20;;;22.00;93.90;;;;;;6189341;23;20024;-87
2022/07/04 14:25:39;;;;;;;0.20;0.10;;;21.90;94.00;;;;;;6189215;23;20009;-90
2022/07/04 14:28:05;;;;;;;0.68;0.20;;;21.80;93.60;;;;;;6189140;23;20021;-87
2022/07/04 14:30:31;;;;;;;;;;;21.60;93.80;;;;;;6165025;23;20446;-88
2022/07/04 14:32:56;;;;;;;0.38;0.20;;;21.60;93.30;;;;;;6165289;23;19970;-87
2022/07/04 14:35:22;;;;;;;0.75;0.28;;;21.60;93.90;;;;;;6165690;23;20052;-89
2022/07/04 14:37:48;;;;;;;0.80;0.20;;;21.70;93.60;;;;;;6187443;23;20079;-88
2022/07/04 14:40:14;;;;;;;0.50;0.20;;;21.60;93.40;;;;;;6186740;23;20021;-90
2022/07/04 14:42:41;;;;;;;0.68;0.25;;;21.60;93.40;;;;;;6187125;23;20016;-88
2022/07/04 14:45:06;;;;;;;;;;;21.60;92.90;;;;;;6189050;23;20016;-92
2022/07/04 14:47:34;;;;;;;1.27;0.20;;;21.70;93.00;;;;;;6213479;23;19926;-89
2022/07/04 14:50:01;;;;;;;0.20;0.13;;;21.60;92.90;;;;;;6188889;23;20025;-87
2022/07/04 14:52:28;;;;;;;0.52;0.20;;;21.50;92.90;;;;;;6215754;23;20024;-89
2022/07/04 14:54:54;;;;;;;1.23;0.68;;;21.40;93.20;;;;;;6191079;23;20087;-93
2022/07/04 14:57:20;;;;;;;1.42;0.32;;;21.30;93.20;;;;;;6192683;23;20100;-92
2022/07/04 14:59:46;;;;;;;0.98;0.20;;;21.30;93.20;;;;;;6164852;23;20012;-90
2022/07/04 15:02:12;;;;;;;0.35;0.20;;;21.20;93.00;;;;;;6189012;23;20020;-89
2022/07/04 15:04:37;;;;;;;0.45;0.20;;;21.10;93.10;;;;;;6189159;23;20020;-89
2022/07/04 15:07:03;;;;;;;0.45;0.13;;;21.00;93.40;;;;;;6189144;23;20017;-89
2022/07/04 15:09:29;;;;;;;0.70;0.30;;;21.00;93.50;;;;;;6164629;23;20059;-92
2022/07/04 15:11:54;;;;;;;0.32;0.20;;;21.00;93.60;;;;;;6164476;23;20016;-92
2022/07/04 15:14:20;;;;;;;0.43;0.20;;;20.90;93.50;;;;;;6189254;23;20024;-88
2022/07/04 15:16:46;;;;;;;0.77;0.30;;;20.80;93.60;;;;;;6189201;23;20419;-94
2022/07/04 15:19:30;;;;;;;1.48;0.20;;;20.80;93.70;;;;;;6189784;23;20099;-91
2022/07/04 15:52:42;;;;;;;0.20;0.10;;;20.20;95.40;;;;;;6275464;22;20027;-88
2022/07/04 15:55:35;;;;;;;0.73;0.35;;;20.20;95.40;;;;;;6223914;22;20329;-89
2022/07/04 16:05:59;;;;;;;0.52;0.17;;;20.10;95.30;;;;;;6233608;22;20032;-89
2022/07/04 16:08:25;;;;;;;0.40;0.20;;;19.90;95.50;;;;;;6139362;23;20026;-89
2022/07/04 16:10:50;;;;;;;0.40;0.20;;;19.90;95.70;;;;;;6095762;23;20018;-90
2022/07/04 16:13:16;;;;;;;0.30;0.20;;;19.90;95.70;;;;;;6095685;23;20064;-88
2022/07/04 16:15:42;;;;;;;0.57;0.20;;;19.80;95.70;;;;;;6071977;23;20018;-88
2022/07/04 16:18:08;;;;;;;0.40;0.20;;;19.80;95.80;;;;;;6122936;23;20022;-88
2022/07/04 16:20:33;;;;;;;1.35;0.35;;;19.80;96.00;;;;;;6097046;23;20466;-91
2022/07/04 16:22:59;;;;;;;1.08;0.30;;;19.90;96.00;;;;;;6097046;23;20474;-88
2022/07/04 16:25:25;;;;;;;0.32;0.13;;;19.90;96.00;;;;;;6097072;23;20026;-88
2022/07/04 16:27:50;;;;;;;0.47;0.20;;;19.90;95.80;;;;;;6096918;23;20014;-88
2022/07/04 16:30:19;;;;;;;0.80;0.30;;;19.90;95.80;;;;;;6098213;23;20033;-87
2022/07/04 16:32:45;;;;;;;0.10;0.10;;;19.80;95.70;;;;;;6096753;23;20014;-89
2022/07/04 16:35:11;;;;;;;0.20;0.20;;;19.70;95.20;;;;;;6097137;23;20026;-91
2022/07/04 16:37:37;;;;;;;0.98;0.20;;;19.60;95.40;;;;;;6097196;23;20014;-89
2022/07/04 16:40:04;;;;;;;0.77;0.30;;;19.50;95.50;;;;;;6097242;23;20328;-88
2022/07/04 16:42:30;;;;;;;0.20;0.10;;;19.50;95.60;;;;;;6096485;23;20018;-88
2022/07/04 16:44:56;;;;;;;0.85;0.25;;;19.50;95.70;;;;;;6101226;23;20043;-87
2022/07/04 16:47:22;;;;;;;0.20;0.20;;;19.40;95.80;;;;;;6101216;23;20447;-88
2022/07/04 16:49:48;;;;;;;0.25;0.20;;;19.50;95.90;;;;;;6072718;23;20025;-89
2022/07/04 16:52:14;;;;;;;0.90;0.20;;;19.50;96.00;;;;;;6073570;23;20328;-90
2022/07/04 16:54:40;;;;;;;0.73;0.20;;;19.50;95.90;;;;;;6097329;23;20530;-90
2022/07/04 16:57:06;;;;;;;0.65;0.20;;;19.50;95.90;;;;;;6096835;23;20045;-89
2022/07/04 16:59:32;;;;;;;0.32;0.20;;;19.50;95.90;;;;;;6096677;23;20018;-88
2022/07/04 17:01:58;;;;;;;0.17;0.15;;;19.60;95.80;;;;;;6096843;23;20017;-88
2022/07/04 17:04:23;;;;;;;0.63;0.10;;;19.60;95.60;;;;;;6096999;23;20466;-89
2022/07/04 17:06:49;;;;;;;0.75;0.10;;;19.60;95.40;;;;;;6096736;23;20359;-90
2022/07/04 17:09:15;;;;;;;0.30;0.20;;;19.60;95.70;;;;;;6096844;23;20033;-89
2022/07/04 17:11:41;;;;;;;1.38;0.20;;;19.60;95.50;;;;;;6096884;23;20010;-87
2022/07/04 17:14:07;;;;;;;2.47;0.30;;;19.70;95.50;;;;;;6072898;23;20101;-90
2022/07/04 17:16:32;;;;;;;2.28;0.25;;;19.70;95.50;;;;;;6097189;23;20018;-92
2022/07/04 17:19:01;;;;;;;0.50;0.20;;;19.60;95.10;;;;;;6072866;23;20161;-91
2022/07/04 17:21:26;;;;;;;1.20;0.40;;;19.60;95.30;;;;;;6096873;23;20014;-90
2022/07/04 17:23:52;;;;;;;0.52;0.20;;;19.60;94.90;;;;;;6096524;23;20022;-89
2022/07/04 17:26:18;;;;;;;0.40;0.20;;;19.60;94.90;;;;;;6096922;23;20031;-90
2022/07/04 17:28:44;;;;;;;0.88;0.30;;;19.60;95.10;;;;;;6096705;23;20060;-87
2022/07/04 17:31:10;;;;;;;0.85;0.40;;;19.60;95.10;;;;;;6072979;23;20022;-88
2022/07/04 17:33:36;;;;;;;0.40;0.20;;;19.60;95.00;;;;;;6096855;23;20458;-89
2022/07/04 17:36:01;;;;;;;0.77;0.20;;;19.60;94.80;;;;;;6096944;23;20010;-88
2022/07/04 17:38:27;;;;;;;0.75;0.30;;;19.60;94.70;;;;;;6096826;23;20021;-88
2022/07/04 17:43:38;;;;;;;0.43;0.20;;;19.50;94.60;;;;;;6097030;23;20096;-88
2022/07/04 17:46:04;;;;;;;0.40;0.20;;;19.50;94.50;;;;;;6097107;23;20022;-89
2022/07/04 17:48:30;;;;;;;1.92;0.73;;;19.50;94.60;;;;;;6096874;23;20105;-88
2022/07/04 17:50:55;;;;;;;0.90;0.30;;;19.40;94.70;;;;;;6073392;23;20427;-89
2022/07/04 17:53:21;;;;;;;0.43;0.25;;;19.40;94.80;;;;;;6073252;23;20022;-88
2022/07/04 17:55:49;;;;;;;0.50;0.38;;;19.40;95.10;;;;;;6097128;23;20021;-88